Evans, CO

8:24 AM MDT on September 02, 2014 (GMT -0600)
Fort Collins-Loveland Municipal | Change Station
CLOSE
Current Station
Airport
Location: Fort Collins,
Elevation: 5016 ft
Nearby Weather Stations

Elev 5016 ft 40.45 °N, 105.01 °W | Updated 9 minutes ago

Clear
Clear
54 °F
Feels Like 54 °F
N
5
Wind Variable Wind from North

Today
High -- | Low -- °F
--% Chance of Precip.
Yesterday
High -- | Low -- °F
Precip. -- in
6:27 AM 7:28 PM
First Quarter, 52% visible
Pressure 30.14 in
Visibility 10.0 miles
Clouds Clear
Dew Point 46 °F
Humidity 77%
Rainfall 0.00 in
Snow Depth Not available.
UV 1 out of 12
Pollen 10.10 out of 12
Ozone Good
PM2.5 Good
Flu Activity Not available.
METAR KFNL 021415Z AUTO 36004KT 10SM CLR 12/08 A3014 RMK AO1

More Conditions Fewer Conditions

Pressure 30.14 in
Visibility 10.0 miles
Clouds Clear
Dew Point 46 °F
Humidity 77%
Rainfall 0.00 in
Snow Depth Not available.
UV 1 out of 12
Pollen 10.10 out of 12
Ozone Good
PM2.5 Good
Flu Activity Not available.
METAR KFNL 021415Z AUTO 36004KT 10SM CLR 12/08 A3014 RMK AO1

More Conditions Fewer Conditions

10-Day Weather Forecast

Almanac

Astronomy

Sep. 02, 2014 Rise Set
Actual Time 6:27 AM MDT 7:28 PM MDT
Civil Twilight 5:59 AM MDT 7:56 PM MDT
Nautical Twilight 5:26 AM MDT 8:29 PM MDT
Astronomical Twilight 4:51 AM MDT 9:04 PM MDT
Moon 2:15 PM MDT No Moon Set
Length of Visible Light 13h 57m
Length of Day
13h 01m
Tomorrow will be 2m 35s shorter.
First Quarter, 52% of the Moon is Illuminated
Today
First Quarter
Sep 8
Full
Sep 15
Last Quarter
Sep 24
New
Oct 1
First Quarter

Today's Extremes

State Highs State Lows

Community

WunderPhotos

Upload Photos

1,749,677 photos uploaded!

Nearby

Air Quality

  Air Quality AQ Index Pollutant
Yesterday Good
OZONE
Yesterday Good
PM2.5
Current Good
PM2.5
Current Good
OZONE
Tuesday Moderate
OZONE
Tuesday Good
PM2.5

Snow Depth

Station Depth Elevation
Copeland Lake 0 in 8600 ft
Wild Basin 0 in 9560 ft
Niwot 1 in 9910 ft
University Camp 0 in 10300 ft
Willow Park 7 in 10700 ft

Earthquake Activity

City Distance Mag. Time & Date
No recent earthquake activity has been reported nearby.
Minimum magnitude displayed is 2.5.

Coastal Water Temperatures

Place Temperature
No Stations Reporting

Nearby Weather Stations